Time;durP1;ratioP1;P1;durP2;ratioP2;P2;SDS_P1;SDS_P2;PMS_P1;PMS_P2;Temp;Humidity;BMP_temperature;BMP_pressure;BME280_temperature;BME280_humidity;BME280_pressure;Samples;Min_cycle;Max_cycle;Signal;HPM_P1;HPM_P2
2022/12/29 00:00:05;;;;;;;4.37;1.60;;;;;;;1.79;100.00;100350.39;1749652;80;21467;-50
2022/12/29 00:02:34;;;;;;;4.90;1.63;;;;;;;1.78;100.00;100352.64;1744348;80;23154;-51
2022/12/29 00:05:01;;;;;;;4.00;1.73;;;;;;;1.77;100.00;100347.33;1746017;80;20999;-51
2022/12/29 00:07:28;;;;;;;4.57;2.40;;;;;;;1.76;100.00;100341.58;1751623;80;21648;-51
2022/12/29 00:09:55;;;;;;;5.27;1.43;;;;;;;1.75;100.00;100335.39;1751385;80;21002;-51
2022/12/29 00:12:21;;;;;;;4.27;1.70;;;;;;;1.73;100.00;100331.84;1747755;80;21073;-50
2022/12/29 00:17:33;;;;;;;;;;;;;;;1.74;100.00;100327.42;1745424;81;21105;-50
2022/12/29 00:36:35;;;;;;;2.50;1.12;;;;;;;1.72;100.00;100334.50;1743194;80;20963;-51
2022/12/29 00:44:40;;;;;;;5.58;1.20;;;;;;;1.76;100.00;100325.66;1733739;80;21073;-50
2022/12/29 00:47:06;;;;;;;3.23;1.30;;;;;;;1.76;100.00;100321.23;1734706;80;21070;-51
2022/12/29 00:49:33;;;;;;;6.70;1.20;;;;;;;1.76;100.00;100302.66;1731983;81;21694;-51
2022/12/29 00:52:05;;;;;;;4.67;1.40;;;;;;;1.78;100.00;100304.86;1734285;80;21537;-50
2022/12/29 00:54:35;;;;;;;6.93;1.40;;;;;;;1.77;100.00;100301.77;1733091;81;21901;-51
2022/12/29 00:57:02;;;;;;;2.67;1.00;;;;;;;1.78;100.00;100308.84;1730329;80;21054;-51
2022/12/29 00:59:29;;;;;;;1.90;1.10;;;;;;;1.80;100.00;100316.77;1729804;80;21010;-51
2022/12/29 01:01:56;;;;;;;2.50;1.00;;;;;;;1.80;100.00;100302.17;1738278;80;20975;-51
2022/12/29 01:04:24;;;;;;;3.37;0.97;;;;;;;1.80;100.00;100305.72;1727041;81;21022;-51
2022/12/29 01:06:51;;;;;;;2.80;1.00;;;;;;;1.81;100.00;100296.87;1742674;80;22838;-51
2022/12/29 01:12:04;;;;;;;2.13;0.90;;;;;;;1.79;100.00;100289.78;1731980;82;20956;-51
2022/12/29 01:14:31;;;;;;;5.23;1.20;;;;;;;1.79;100.00;100290.67;1733068;80;21569;-51
2022/12/29 01:16:57;;;;;;;2.33;1.30;;;;;;;1.78;100.00;100293.36;1736154;80;21590;-51
2022/12/29 01:19:24;;;;;;;3.23;1.30;;;;;;;1.77;100.00;100296.90;1746565;81;21861;-51
2022/12/29 01:21:50;;;;;;;3.63;1.00;;;;;;;1.76;100.00;100301.33;1753260;80;21693;-51
2022/12/29 01:24:19;;;;;;;3.33;1.17;;;;;;;1.75;100.00;100294.69;1745936;80;21996;-50
2022/12/29 01:26:46;;;;;;;3.73;0.90;;;;;;;1.73;100.00;100290.70;1751685;80;21046;-51
2022/12/29 01:29:13;;;;;;;2.80;1.10;;;;;;;1.73;100.00;100288.05;1746318;81;21030;-51
2022/12/29 01:31:39;;;;;;;1.77;1.03;;;;;;;1.73;100.00;100283.19;1746884;81;21838;-51
2022/12/29 01:34:06;;;;;;;3.53;0.90;;;;;;;1.73;100.00;100273.90;1748592;81;21036;-51
2022/12/29 01:36:32;;;;;;;5.43;1.10;;;;;;;1.71;100.00;100269.03;1747082;80;21105;-51
2022/12/29 01:38:58;;;;;;;1.83;0.90;;;;;;;1.69;100.00;100257.57;1752023;80;21424;-51
2022/12/29 01:41:25;;;;;;;2.53;0.90;;;;;;;1.67;100.00;100250.05;1748668;81;20982;-51
2022/12/29 01:43:57;;;;;;;6.23;1.20;;;;;;;1.65;100.00;100245.19;1752902;80;21874;-51
2022/12/29 01:46:39;;;;;;;3.70;1.03;;;;;;;1.61;100.00;100256.72;1746148;80;21573;-51
2022/12/29 01:49:21;;;;;;;7.73;0.97;;;;;;;1.59;100.00;100254.06;1749195;80;20991;-52
2022/12/29 01:51:58;;;;;;;2.73;1.13;;;;;;;1.57;100.00;100256.28;1748093;80;20986;-51
2022/12/29 01:54:42;;;;;;;2.60;1.10;;;;;;;1.55;100.00;100252.74;1744766;80;21081;-50
2022/12/29 01:57:12;;;;;;;3.50;0.90;;;;;;;1.49;100.00;100243.94;1685827;84;21809;-51
2022/12/29 01:59:53;;;;;;;2.73;1.07;;;;;;;1.47;100.00;100244.37;1688747;84;21064;-50
2022/12/29 02:02:20;;;;;;;3.00;1.10;;;;;;;1.43;100.00;100249.27;1692849;82;21094;-51
2022/12/29 02:04:47;;;;;;;3.20;1.10;;;;;;;1.40;100.00;100249.27;1693486;83;21494;-50
2022/12/29 02:07:20;;;;;;;3.93;1.20;;;;;;;1.37;100.00;100241.31;1693440;83;21323;-50
2022/12/29 02:09:48;;;;;;;2.60;1.33;;;;;;;1.35;100.00;100240.45;1694028;83;21758;-50
2022/12/29 02:12:16;;;;;;;3.30;1.00;;;;;;;1.33;100.00;100239.58;1696314;83;21034;-50
2022/12/29 02:14:44;;;;;;;4.43;1.20;;;;;;;1.31;100.00;100232.50;1698791;83;21531;-50
2022/12/29 02:17:43;;;;;;;3.20;1.03;;;;;;;1.29;100.00;100231.61;1683133;83;20974;-50
2022/12/29 02:20:49;;;;;;;2.00;1.10;;;;;;;1.26;100.00;100237.83;1689879;83;21066;-50
2022/12/29 02:23:58;;;;;;;1.13;0.90;;;;;;;1.24;100.00;100225.02;1687164;83;21848;-50
2022/12/29 02:27:03;;;;;;;3.53;1.10;;;;;;;1.23;100.00;100223.69;1688135;83;21043;-49
2022/12/29 02:29:56;;;;;;;3.60;1.00;;;;;;;1.23;100.00;100222.36;1684581;84;21527;-49
2022/12/29 02:32:40;;;;;;;3.97;0.90;;;;;;;1.23;100.00;100227.66;1706504;82;21058;-47
2022/12/29 02:35:28;;;;;;;1.82;1.00;;;;;;;1.21;100.00;100226.78;1674533;82;21060;-47
2022/12/29 02:38:27;;;;;;;3.50;0.93;;;;;;;1.22;100.00;100224.13;1689107;84;22002;-46
2022/12/29 02:41:10;;;;;;;1.87;0.87;;;;;;;1.23;100.00;100219.70;1688872;83;21116;-47
2022/12/29 02:43:54;;;;;;;2.17;1.00;;;;;;;1.24;100.00;100217.06;1692379;83;21293;-47
2022/12/29 02:46:46;;;;;;;2.85;1.00;;;;;;;1.26;100.00;100215.30;1661487;84;21064;-47
2022/12/29 02:49:26;;;;;;;1.83;1.00;;;;;;;1.27;100.00;100206.45;1686925;83;21086;-48
2022/12/29 02:52:03;;;;;;;1.23;0.90;;;;;;;1.29;100.00;100205.98;1691258;84;21850;-48
2022/12/29 02:54:41;;;;;;;3.80;1.10;;;;;;;1.29;100.00;100195.81;1680885;83;20985;-47
2022/12/29 02:57:26;;;;;;;2.77;1.00;;;;;;;1.28;100.00;100188.30;1689249;83;21071;-48
2022/12/29 03:00:10;;;;;;;2.67;1.00;;;;;;;1.29;100.00;100191.39;1685961;83;21069;-48
2022/12/29 03:03:06;;;;;;;2.33;1.10;;;;;;;1.28;100.00;100188.30;1690546;83;21034;-47
2022/12/29 03:06:13;;;;;;;2.13;0.90;;;;;;;1.30;100.00;100192.27;1686293;83;21832;-46
2022/12/29 03:08:55;;;;;;;1.60;0.90;;;;;;;1.29;100.00;100190.06;1687864;83;21074;-47
2022/12/29 03:17:32;;;;;;;1.80;1.00;;;;;;;1.31;100.00;100175.48;1687707;83;21136;-49
2022/12/29 03:20:01;;;;;;;;;;;;;;;1.28;100.00;100180.34;1665757;83;22080;-46
2022/12/29 03:22:32;;;;;;;1.20;0.87;;;;;;;1.26;100.00;100178.61;1668813;83;20179;-47
2022/12/29 03:25:12;;;;;;;4.73;1.10;;;;;;;1.23;100.00;100177.28;1743613;80;20983;-46
2022/12/29 03:27:43;;;;;;;5.57;1.60;;;;;;;1.20;100.00;100166.67;1747570;80;21021;-46
2022/12/29 03:30:10;;;;;;;7.90;2.70;;;;;;;1.17;100.00;100171.56;1748072;80;21464;-47
2022/12/29 03:32:50;;;;;;;8.73;3.60;;;;;;;1.14;100.00;100170.23;1722540;81;21469;-47
2022/12/29 03:35:20;;;;;;;6.03;3.47;;;;;;;1.11;100.00;100166.27;1744931;80;21066;-48
2022/12/29 03:37:53;;;;;;;4.70;2.20;;;;;;;1.09;100.00;100168.06;1750286;80;20986;-49
2022/12/29 03:40:19;;;;;;;8.07;3.93;;;;;;;1.09;100.00;100172.05;1741182;80;21060;-47
2022/12/29 03:42:48;;;;;;;3.97;2.57;;;;;;;1.06;100.00;100175.58;1747876;80;20997;-49
2022/12/29 03:45:14;;;;;;;3.03;2.00;;;;;;;1.02;100.00;100171.16;1748432;80;21791;-48
2022/12/29 03:47:41;;;;;;;5.07;2.30;;;;;;;-144.06;100.00;116433.64;1700813;81;21613;-46
2022/12/29 10:36:14;;;;;;;7.40;3.30;;;;;;;3.08;100.00;100019.39;1792199;78;27358;-51
2022/12/29 10:38:51;;;;;;;6.23;3.17;;;;;;;3.03;100.00;100040.29;1757609;79;21604;-49
2022/12/29 10:41:25;;;;;;;5.30;2.70;;;;;;;3.03;100.00;100030.98;1714023;81;21875;-50
2022/12/29 10:43:54;;;;;;;7.83;2.87;;;;;;;3.05;100.00;100034.95;1710740;81;21104;-53
2022/12/29 10:46:35;;;;;;;5.00;3.30;;;;;;;3.08;100.00;100033.56;1708796;81;21091;-54
2022/12/29 10:49:03;;;;;;;6.50;3.57;;;;;;;3.11;100.00;100038.86;1722344;81;21430;-51
2022/12/29 10:51:36;;;;;;;7.27;4.20;;;;;;;3.14;100.00;100034.84;1713511;81;21626;-50
2022/12/29 10:54:17;;;;;;;7.43;4.43;;;;;;;3.16;100.00;100039.66;1696374;82;21836;-50
2022/12/29 10:56:47;;;;;;;6.90;4.17;;;;;;;3.19;100.00;100027.66;1704790;82;21089;-50
2022/12/29 10:59:24;;;;;;;5.67;3.63;;;;;;;3.25;100.00;100026.68;1729693;81;21065;-52
2022/12/29 11:02:08;;;;;;;5.17;3.53;;;;;;;3.27;100.00;100028.42;1709798;81;21511;-51
2022/12/29 11:05:04;;;;;;;5.47;3.70;;;;;;;3.31;100.00;100024.84;1708188;81;21032;-50
2022/12/29 11:07:31;;;;;;;10.60;5.67;;;;;;;3.33;100.00;100015.47;1699813;82;22576;-50
2022/12/29 11:10:39;;;;;;;7.93;4.63;;;;;;;3.37;100.00;100009.22;1717320;81;21520;-51
2022/12/29 11:13:17;;;;;;;5.97;3.30;;;;;;;3.37;100.00;100011.88;1733575;81;21579;-51
2022/12/29 11:15:49;;;;;;;7.90;4.97;;;;;;;3.40;100.00;100010.52;1706000;82;21138;-52
2022/12/29 11:18:33;;;;;;;9.67;4.07;;;;;;;3.38;100.00;100006.55;1709399;82;21631;-50
2022/12/29 11:21:01;;;;;;;4.97;2.53;;;;;;;3.36;100.00;100007.01;1699550;82;22564;-52
2022/12/29 11:23:37;;;;;;;7.30;3.97;;;;;;;3.36;100.00;100019.43;1709719;82;21100;-53
2022/12/29 11:26:14;;;;;;;7.07;4.80;;;;;;;3.37;100.00;100015.42;1708137;82;21059;-50
2022/12/29 11:28:43;;;;;;;9.93;3.70;;;;;;;3.38;100.00;100016.30;1710792;82;21080;-52
2022/12/29 11:31:10;;;;;;;5.97;3.30;;;;;;;3.37;100.00;100018.09;1710217;82;21092;-53
2022/12/29 11:33:38;;;;;;;7.90;3.93;;;;;;;3.38;100.00;100017.19;1714679;82;21848;-52
2022/12/29 11:36:17;;;;;;;5.43;3.70;;;;;;;3.39;100.00;100021.61;1673888;82;21203;-53
2022/12/29 11:38:51;;;;;;;4.63;3.23;;;;;;;3.40;100.00;100031.80;1720805;82;21068;-51
2022/12/29 11:41:26;;;;;;;4.65;2.90;;;;;;;3.42;100.00;100029.52;1758417;80;21099;-51
2022/12/29 11:43:53;;;;;;;;;;;;;;;3.43;100.00;100033.95;1764539;79;21065;-50
2022/12/29 11:46:28;;;;;;;5.10;2.93;;;;;;;3.42;100.00;100029.52;1758811;79;22605;-49
2022/12/29 11:48:58;;;;;;;6.65;3.60;;;;;;;3.41;100.00;100030.87;1755208;79;21464;-50
2022/12/29 11:51:25;;;;;;;4.57;3.60;;;;;;;3.40;100.00;100032.66;1757041;79;21445;-54
2022/12/29 11:53:55;;;;;;;5.63;3.30;;;;;;;3.38;100.00;100028.28;1761040;79;20994;-50
2022/12/29 11:56:40;;;;;;;4.70;3.13;;;;;;;3.36;100.00;100032.28;1761008;79;20991;-50
2022/12/29 11:59:30;;;;;;;;;;;;;;;3.34;100.00;100030.09;1757975;79;21792;-54
2022/12/29 12:01:58;;;;;;;5.03;3.40;;;;;;;3.32;100.00;100033.67;1757170;79;20215;-53
2022/12/29 12:04:30;;;;;;;6.40;3.27;;;;;;;3.30;100.00;100039.03;1758073;79;21581;-54
2022/12/29 12:07:20;;;;;;;9.37;3.47;;;;;;;3.28;100.00;100043.94;1754462;79;21096;-54
2022/12/29 12:09:55;;;;;;;4.50;3.23;;;;;;;3.25;100.00;100043.52;1698112;82;21479;-53
2022/12/29 12:12:31;;;;;;;4.58;3.10;;;;;;;3.25;100.00;100036.87;1676690;82;21406;-53
2022/12/29 12:14:59;;;;;;;6.97;2.97;;;;;;;3.28;100.00;100038.62;1736518;80;21093;-54
2022/12/29 12:17:53;;;;;;;5.43;3.23;;;;;;;3.31;100.00;100038.14;1738389;79;21025;-53
2022/12/29 12:20:28;;;;;;;5.03;2.70;;;;;;;3.32;100.00;100041.20;1757336;79;21116;-54
2022/12/29 12:23:09;;;;;;;8.53;3.63;;;;;;;3.35;100.00;100038.50;1756669;79;21061;-53
2022/12/29 12:25:38;;;;;;;5.20;3.07;;;;;;;3.36;100.00;100040.72;1757073;80;21999;-53
2022/12/29 12:28:25;;;;;;;5.23;3.07;;;;;;;3.36;100.00;100040.72;1756008;79;21060;-55
2022/12/29 12:30:58;;;;;;;5.33;2.37;;;;;;;3.35;100.00;100030.97;1759843;79;21050;-53
2022/12/29 12:33:39;;;;;;;4.07;2.53;;;;;;;3.36;100.00;100034.06;1758318;80;21581;-54
2022/12/29 12:36:29;;;;;;;7.57;2.80;;;;;;;3.35;100.00;100033.19;1759159;79;21049;-53
2022/12/29 12:39:12;;;;;;;6.90;3.37;;;;;;;3.35;100.00;100022.99;1719128;82;21837;-53
2022/12/29 12:42:12;;;;;;;5.20;2.53;;;;;;;3.33;100.00;100019.02;1759968;79;21057;-54
2022/12/29 12:45:19;;;;;;;7.03;3.00;;;;;;;3.32;100.00;100028.34;1728036;79;21821;-54
2022/12/29 12:48:21;;;;;;;4.97;3.20;;;;;;;3.30;100.00;100009.77;1709389;82;21089;-54
2022/12/29 12:51:22;;;;;;;5.37;3.00;;;;;;;3.28;100.00;99995.61;1759614;80;21061;-53
2022/12/29 12:54:44;;;;;;;4.17;3.03;;;;;;;3.27;100.00;99995.63;1756880;79;21824;-54
2022/12/29 12:57:50;;;;;;;5.20;2.90;;;;;;;3.24;100.00;99988.55;1757811;79;21082;-54
2022/12/29 13:00:19;;;;;;;4.00;2.65;;;;;;;3.22;100.00;99989.05;1724840;82;21539;-53
2022/12/29 13:03:12;;;;;;;5.93;3.63;;;;;;;3.21;100.00;99975.77;1759319;79;21532;-54
2022/12/29 13:05:47;;;;;;;7.27;4.43;;;;;;;3.20;100.00;99978.00;1752158;79;21109;-53
2022/12/29 13:08:26;;;;;;;;;;;;;;;3.18;100.00;99973.14;1723410;80;23121;-53
2022/12/29 13:11:07;;;;;;;7.23;4.67;;;;;;;3.17;100.00;99985.56;1760212;79;21111;-54
2022/12/29 13:14:10;;;;;;;8.23;4.97;;;;;;;3.16;100.00;99992.23;1759161;79;21129;-53
2022/12/29 13:17:17;;;;;;;10.73;5.20;;;;;;;3.14;100.00;99997.59;1756604;80;21521;-54
2022/12/29 13:20:10;;;;;;;10.60;4.40;;;;;;;3.12;100.00;100010.03;1757442;80;21064;-53
2022/12/29 13:22:45;;;;;;;7.97;3.67;;;;;;;3.12;100.00;100014.02;1758042;80;21851;-54
2022/12/29 13:25:33;;;;;;;8.80;4.27;;;;;;;3.13;100.00;100022.88;1757154;80;21061;-53
2022/12/29 13:28:23;;;;;;;6.80;4.03;;;;;;;3.12;100.00;100018.46;1760660;80;21038;-54
2022/12/29 13:31:19;;;;;;;7.37;4.67;;;;;;;3.11;100.00;100013.59;1759106;80;21398;-53
2022/12/29 13:33:54;;;;;;;8.23;4.50;;;;;;;3.11;100.00;100012.70;1759142;80;21124;-53
2022/12/29 13:36:43;;;;;;;4.03;2.55;;;;;;;3.10;100.00;100010.95;1757855;80;22263;-54
2022/12/29 13:39:29;;;;;;;10.63;4.87;;;;;;;3.10;100.00;100013.60;1757744;80;22281;-54
2022/12/29 13:41:56;;;;;;;6.87;3.85;;;;;;;3.09;100.00;100006.07;1760838;80;29250;-53
2022/12/29 13:44:29;;;;;;;7.83;4.00;;;;;;;3.08;100.00;100008.75;1754145;80;21102;-54
2022/12/29 13:46:56;;;;;;;4.70;3.63;;;;;;;3.07;100.00;100010.97;1755583;80;21090;-54
2022/12/29 13:49:26;;;;;;;5.83;3.57;;;;;;;3.06;100.00;100023.42;1759181;80;21948;-54
2022/12/29 13:51:56;;;;;;;6.27;3.70;;;;;;;3.06;100.00;100011.91;1754869;80;21034;-55
2022/12/29 13:54:51;;;;;;;5.83;3.40;;;;;;;3.05;100.00;100004.38;1758495;80;21058;-54
2022/12/29 13:57:47;;;;;;;4.10;3.40;;;;;;;3.03;100.00;100007.50;1758683;80;21409;-54
2022/12/29 14:00:20;;;;;;;6.83;4.10;;;;;;;2.99;100.00;100015.95;1758399;80;21594;-55
2022/12/29 14:03:12;;;;;;;8.20;4.67;;;;;;;2.98;100.00;100010.20;1759179;80;21835;-54
2022/12/29 14:05:38;;;;;;;4.90;3.57;;;;;;;2.97;100.00;100019.11;1762387;80;21092;-54
2022/12/29 14:08:05;;;;;;;12.23;5.67;;;;;;;2.97;100.00;100019.11;1764033;80;21066;-54
2022/12/29 14:10:36;;;;;;;8.17;4.93;;;;;;;2.98;100.00;100019.95;1761577;80;21073;-54
2022/12/29 14:13:17;;;;;;;10.10;4.73;;;;;;;2.97;100.00;100016.89;1765057;80;21030;-54
2022/12/29 14:15:47;;;;;;;7.63;4.73;;;;;;;2.97;100.00;100015.12;1756627;79;21893;-54
2022/12/29 14:18:21;;;;;;;7.10;5.37;;;;;;;2.95;100.00;100017.36;1762728;80;21010;-55
2022/12/29 14:21:10;;;;;;;7.77;4.87;;;;;;;2.93;100.00;100009.84;1751496;80;21121;-54
2022/12/29 14:23:44;;;;;;;7.70;4.23;;;;;;;2.92;100.00;100015.61;1756899;80;21085;-53
2022/12/29 14:26:20;;;;;;;10.97;7.47;;;;;;;2.91;100.00;100008.53;1757178;80;21114;-55
2022/12/29 14:28:48;;;;;;;9.70;7.17;;;;;;;2.89;100.00;99995.70;1748707;80;22960;-55
2022/12/29 14:31:31;;;;;;;11.37;6.30;;;;;;;2.88;100.00;99992.64;1755876;80;21478;-55
2022/12/29 14:34:12;;;;;;;9.93;5.90;;;;;;;2.87;100.00;99983.34;1753867;80;21057;-55
2022/12/29 14:36:40;;;;;;;7.27;5.27;;;;;;;2.84;100.00;99978.94;1757626;80;21089;-54
2022/12/29 14:39:33;;;;;;;7.00;4.67;;;;;;;2.81;100.00;99987.39;1754579;80;21132;-53
2022/12/29 14:42:13;;;;;;;11.00;4.37;;;;;;;2.78;100.00;100002.08;1753698;80;22504;-55
2022/12/29 14:45:04;;;;;;;12.60;7.53;;;;;;;2.74;100.00;99998.56;1752881;80;21021;-54
2022/12/29 14:47:43;;;;;;;13.83;9.10;;;;;;;2.73;100.00;99995.92;1758499;80;21029;-54
2022/12/29 14:50:23;;;;;;;13.50;8.13;;;;;;;2.72;100.00;99994.19;1718817;82;21074;-53
2022/12/29 14:52:58;;;;;;;17.83;9.07;;;;;;;2.71;100.00;99997.74;1756891;80;21589;-53
2022/12/29 14:55:55;;;;;;;11.67;8.27;;;;;;;2.70;100.00;100000.84;1758573;80;21805;-52
2022/12/29 14:58:32;;;;;;;12.73;6.47;;;;;;;2.67;100.00;100006.19;1761638;80;21583;-52
2022/12/29 15:00:59;;;;;;;10.00;5.80;;;;;;;2.65;100.00;100006.66;1752766;80;21108;-52
2022/12/29 15:03:32;;;;;;;6.93;4.73;;;;;;;2.63;100.00;100003.16;1756326;80;21557;-53
2022/12/29 15:06:11;;;;;;;9.73;5.33;;;;;;;2.61;100.00;99992.98;1757504;80;21333;-52
2022/12/29 15:08:46;;;;;;;8.67;5.47;;;;;;;2.59;100.00;99992.12;1760672;80;21889;-52
2022/12/29 15:11:15;;;;;;;;;;;;;;;2.59;100.00;99996.11;1760229;80;21034;-52
2022/12/29 15:13:43;;;;;;;7.20;4.37;;;;;;;2.56;100.00;99993.47;1767160;80;20207;-52
2022/12/29 15:16:33;;;;;;;11.30;5.40;;;;;;;2.54;100.00;99996.62;1754355;80;21040;-49
2022/12/29 15:18:59;;;;;;;9.17;5.43;;;;;;;2.51;100.00;99999.30;1761035;80;21066;-49
2022/12/29 15:21:33;;;;;;;10.70;5.63;;;;;;;2.49;100.00;100004.62;1752785;80;21930;-48
2022/12/29 15:24:00;;;;;;;7.80;5.40;;;;;;;2.47;100.00;100002.87;1763129;80;21066;-49
2022/12/29 15:26:44;;;;;;;13.07;5.30;;;;;;;2.47;100.00;100008.19;1757762;80;21036;-51
2022/12/29 15:29:38;;;;;;;7.87;5.17;;;;;;;2.45;100.00;100004.70;1763527;80;21494;-52
2022/12/29 15:32:21;;;;;;;8.23;4.57;;;;;;;2.43;100.00;99999.84;1758686;79;22350;-50
2022/12/29 15:48:28;;;;;;;9.03;6.67;;;;;;;2.79;100.00;99968.83;1773314;78;23429;-54
2022/12/29 15:50:55;;;;;;;9.47;6.33;;;;;;;2.83;100.00;99988.26;1744628;80;21007;-54
2022/12/29 15:53:30;;;;;;;8.20;6.57;;;;;;;2.85;100.00;99996.66;1773849;79;21950;-54
2022/12/29 15:56:08;;;;;;;10.97;6.67;;;;;;;2.85;100.00;100000.64;1775266;79;21359;-54
2022/12/29 15:58:44;;;;;;;7.70;5.83;;;;;;;2.82;100.00;99994.02;1778100;79;20970;-53
2022/12/29 16:01:33;;;;;;;9.50;7.17;;;;;;;2.76;100.00;99988.80;1755072;79;21080;-54
2022/12/29 16:04:04;;;;;;;10.03;6.80;;;;;;;2.71;100.00;99995.09;1746189;79;21144;-54
2022/12/29 16:06:37;;;;;;;8.43;6.77;;;;;;;2.65;100.00;99990.25;1753941;79;21945;-54
2022/12/29 16:09:09;;;;;;;10.75;7.28;;;;;;;2.60;100.00;99994.77;1726719;79;21557;-52
2022/12/29 16:11:53;;;;;;;11.87;7.30;;;;;;;2.56;100.00;99989.04;1752956;79;21123;-53
2022/12/29 16:14:23;;;;;;;14.40;7.00;;;;;;;2.54;100.00;99992.64;1758245;79;22017;-52
2022/12/29 16:16:50;;;;;;;10.30;7.13;;;;;;;2.50;100.00;100000.20;1755638;79;21069;-55
2022/12/29 16:19:39;;;;;;;10.33;6.67;;;;;;;2.46;100.00;99989.19;1755684;79;21874;-54
2022/12/29 16:22:14;;;;;;;10.97;6.37;;;;;;;2.43;100.00;99987.89;1751081;79;21716;-53
2022/12/29 16:24:41;;;;;;;11.20;6.43;;;;;;;2.39;100.00;99989.69;1755922;79;22242;-52
2022/12/29 16:27:22;;;;;;;10.83;7.37;;;;;;;2.38;100.00;99984.42;1756920;79;21092;-53
2022/12/29 16:29:51;;;;;;;10.67;7.17;;;;;;;2.36;100.00;99987.09;1759632;79;21056;-54
2022/12/29 16:32:29;;;;;;;11.73;7.57;;;;;;;2.34;100.00;99980.02;1732286;80;21852;-54
2022/12/29 16:35:22;;;;;;;11.70;7.30;;;;;;;2.32;100.00;99974.72;1774536;78;21224;-54
2022/12/29 16:38:10;;;;;;;9.17;6.17;;;;;;;2.30;100.00;99969.02;1681860;81;21133;-55
2022/12/29 16:40:56;;;;;;;11.93;6.90;;;;;;;2.26;100.00;99967.72;1747804;80;21072;-55
2022/12/29 16:43:34;;;;;;;13.77;6.43;;;;;;;2.24;100.00;99965.96;1751401;80;21040;-55
2022/12/29 16:46:07;;;;;;;9.37;6.37;;;;;;;2.24;100.00;99965.96;1747894;80;21853;-52
2022/12/29 16:48:36;;;;;;;10.43;6.70;;;;;;;2.25;100.00;99963.73;1746413;80;21527;-53
2022/12/29 16:51:16;;;;;;;8.60;6.00;;;;;;;2.24;100.00;99954.01;1743194;80;21053;-52
2022/12/29 16:53:48;;;;;;;10.87;7.13;;;;;;;2.22;100.00;99954.47;1749201;80;21109;-54
2022/12/29 16:56:19;;;;;;;13.87;7.00;;;;;;;2.21;100.00;99962.87;1751868;80;21291;-54
2022/12/29 16:58:50;;;;;;;12.63;7.33;;;;;;;2.21;100.00;99970.00;1747357;80;22294;-54
2022/12/29 17:01:18;;;;;;;10.43;8.20;;;;;;;2.18;100.00;99960.28;1746213;80;21070;-55
2022/12/29 17:03:53;;;;;;;13.60;7.60;;;;;;;2.17;100.00;99962.95;1750087;80;21112;-54
2022/12/29 17:06:21;;;;;;;10.93;7.20;;;;;;;2.16;100.00;99959.86;1748120;80;21061;-53
2022/12/29 17:08:48;;;;;;;10.17;7.37;;;;;;;2.13;100.00;99958.10;1746122;80;21573;-52
2022/12/29 17:14:41;;;;;;;11.87;7.60;;;;;;;2.11;100.00;99951.08;1733718;80;21645;-53
2022/12/29 17:17:39;;;;;;;11.93;6.80;;;;;;;2.09;100.00;99948.43;1753344;80;21000;-54
2022/12/29 17:20:15;;;;;;;12.17;8.10;;;;;;;2.05;100.00;99937.84;1750410;80;21062;-55
2022/12/29 17:22:41;;;;;;;11.97;7.97;;;;;;;2.02;100.00;99941.88;1748719;80;22524;-53
2022/12/29 17:25:14;;;;;;;13.53;6.30;;;;;;;1.99;100.00;99954.73;1745511;80;21923;-53
2022/12/29 17:28:12;;;;;;;10.87;6.30;;;;;;;1.96;100.00;99949.44;1748723;80;21143;-53
2022/12/29 17:30:39;;;;;;;11.03;7.30;;;;;;;1.95;100.00;99946.83;1747647;80;21093;-54
2022/12/29 17:33:10;;;;;;;10.17;6.97;;;;;;;1.93;100.00;99948.16;1749277;80;21550;-53
2022/12/29 17:35:36;;;;;;;13.40;8.13;;;;;;;1.90;100.00;99939.78;1720048;80;21057;-54
2022/12/29 17:38:19;;;;;;;12.27;8.00;;;;;;;1.88;100.00;99940.67;1750474;80;22037;-54
2022/12/29 17:40:46;;;;;;;12.57;8.00;;;;;;;1.86;100.00;99931.43;1746827;80;21100;-55
2022/12/29 17:43:18;;;;;;;10.07;7.00;;;;;;;1.85;100.00;99934.09;1750614;80;21112;-54
2022/12/29 17:45:50;;;;;;;12.93;7.40;;;;;;;1.84;100.00;99946.93;1784637;78;21534;-54
2022/12/29 17:48:21;;;;;;;13.00;7.67;;;;;;;1.82;100.00;99935.00;1752776;80;21040;-53
2022/12/29 17:50:48;;;;;;;16.70;8.10;;;;;;;1.80;100.00;99940.75;1750376;80;21852;-54
2022/12/29 17:53:24;;;;;;;13.67;8.20;;;;;;;1.77;100.00;99938.16;1755700;80;22191;-54
2022/12/29 17:55:51;;;;;;;12.90;8.23;;;;;;;1.77;100.00;99940.81;1750943;80;20984;-54
2022/12/29 17:58:27;;;;;;;15.67;8.53;;;;;;;1.76;100.00;99944.35;1754773;80;21020;-54
2022/12/29 18:00:56;;;;;;;13.37;8.77;;;;;;;1.74;100.00;99938.17;1740980;80;21514;-54
2022/12/29 18:03:29;;;;;;;17.57;9.07;;;;;;;1.74;100.00;99940.83;1747022;80;22456;-54
2022/12/29 18:05:55;;;;;;;12.23;8.03;;;;;;;1.72;100.00;99942.61;1749323;80;21334;-53
2022/12/29 18:08:22;;;;;;;11.67;7.43;;;;;;;1.72;100.00;99935.09;1744279;80;21080;-55
2022/12/29 18:10:50;;;;;;;12.10;8.33;;;;;;;1.70;100.00;99939.08;1749371;80;21076;-54
2022/12/29 18:13:24;;;;;;;17.80;8.70;;;;;;;1.70;100.00;99939.08;1746815;80;21085;-55
2022/12/29 18:15:52;;;;;;;13.03;8.30;;;;;;;1.69;100.00;99936.03;1747776;80;21809;-54
2022/12/29 18:18:20;;;;;;;15.33;8.53;;;;;;;1.69;100.00;99929.39;1748406;80;21057;-52
2022/12/29 18:20:49;;;;;;;12.67;8.30;;;;;;;1.70;100.00;99939.56;1746092;80;21173;-54
2022/12/29 18:23:36;;;;;;;17.00;9.70;;;;;;;1.70;100.00;99930.27;1776081;78;21138;-54
2022/12/29 18:26:09;;;;;;;15.50;9.13;;;;;;;1.71;100.00;99927.58;1751417;79;21120;-55
2022/12/29 18:28:35;;;;;;;11.27;8.60;;;;;;;1.72;100.00;99925.80;1749971;79;21836;-55
2022/12/29 18:31:02;;;;;;;15.17;8.30;;;;;;;1.70;100.00;99917.85;1756384;79;21041;-54
2022/12/29 18:33:28;;;;;;;15.60;9.00;;;;;;;1.70;100.00;99921.83;1762069;79;21088;-55
2022/12/29 18:36:03;;;;;;;16.63;9.80;;;;;;;1.70;100.00;99920.98;1756062;79;21056;-54
2022/12/29 18:38:29;;;;;;;16.73;10.25;;;;;;;1.72;100.00;99925.80;1755078;78;27871;-54
2022/12/29 18:40:57;;;;;;;12.73;8.60;;;;;;;1.72;100.00;99923.15;1765981;79;21715;-54
2022/12/29 18:43:23;;;;;;;17.40;9.27;;;;;;;1.73;100.00;99925.80;1758016;79;21131;-54
2022/12/29 18:45:50;;;;;;;17.33;9.37;;;;;;;1.75;100.00;99920.48;1777081;78;21536;-54
2022/12/29 18:48:18;;;;;;;15.77;9.23;;;;;;;1.79;100.00;99922.19;1749808;80;21080;-55
2022/12/29 18:50:45;;;;;;;13.13;8.67;;;;;;;1.82;100.00;99927.48;1750912;80;21049;-55
2022/12/29 18:53:23;;;;;;;12.97;7.70;;;;;;;1.86;100.00;99925.23;1782753;78;22469;-55
2022/12/29 18:55:51;;;;;;;15.70;8.97;;;;;;;1.90;100.00;99923.84;1777960;78;21569;-54
2022/12/29 18:58:18;;;;;;;15.13;9.43;;;;;;;1.95;100.00;99920.28;1749930;80;21085;-53
2022/12/29 19:00:45;;;;;;;14.57;9.53;;;;;;;1.98;100.00;99919.78;1746688;80;21032;-55
2022/12/29 19:03:12;;;;;;;13.93;9.63;;;;;;;2.03;100.00;99922.41;1750930;80;21366;-54
2022/12/29 19:05:41;;;;;;;13.67;8.17;;;;;;;2.06;100.00;99931.19;1758397;80;21832;-56
2022/12/29 19:08:09;;;;;;;15.07;8.50;;;;;;;2.11;100.00;99933.37;1758413;79;21562;-54
2022/12/29 19:10:37;;;;;;;17.50;8.70;;;;;;;2.15;100.00;99931.54;1760162;79;21558;-54
2022/12/29 19:13:04;;;;;;;13.73;8.80;;;;;;;2.18;100.00;99935.05;1779080;79;21048;-54
2022/12/29 19:15:34;;;;;;;9.80;7.70;;;;;;;2.20;100.00;99937.25;1777039;78;21052;-53
2022/12/29 19:18:03;;;;;;;11.77;8.07;;;;;;;2.23;100.00;99933.66;1783205;78;22572;-54
2022/12/29 19:20:34;;;;;;;12.77;8.47;;;;;;;2.24;100.00;99932.31;1754817;80;21663;-52
2022/12/29 19:23:05;;;;;;;14.43;8.00;;;;;;;2.25;100.00;99930.54;1741823;80;21104;-53
2022/12/29 19:25:31;;;;;;;12.87;7.33;;;;;;;2.28;100.00;99929.19;1773574;78;21135;-53
2022/12/29 19:27:59;;;;;;;13.07;7.83;;;;;;;2.30;100.00;99932.67;1748679;80;21721;-50
2022/12/29 19:30:25;;;;;;;11.70;8.13;;;;;;;2.32;100.00;99936.66;1753614;80;21850;-49
2022/12/29 19:32:54;;;;;;;15.93;8.33;;;;;;;2.33;100.00;99934.43;1752912;80;21545;-54
2022/12/29 19:35:25;;;;;;;14.27;7.90;;;;;;;2.34;100.00;99934.86;1754174;80;21056;-51
2022/12/29 19:37:52;;;;;;;11.80;8.27;;;;;;;2.35;100.00;99939.28;1757666;79;21565;-53
2022/12/29 19:40:22;;;;;;;14.57;8.10;;;;;;;2.34;100.00;99931.77;1779564;78;21131;-52
2022/12/29 19:42:49;;;;;;;12.50;8.10;;;;;;;2.35;100.00;99936.18;1764815;79;21962;-53